Kaministiqua — CFN4612 — position and weather

sailwx.info

Track history (hours):
 
Tides and Currents Weather Stations Pressure Air Temp Water Temp Dewpoint Dewpoint Depression Visibility Wind Speed Wind Dir Waves Ship Positions

Kaministiqua

Last reported at 2016-May-03 06:17 UTC. Time now 2016-May-03 16:19 UTC.
Position N 46°27' W 084°33'.

Length 223 m; draft 7 m.

Type: Cargo ship. MMSI: 316009457.

Date/timePositionNaut miles runAvg speedWind from/ knotsBaromVisibWave heightAir tempDewpointWater temp
2016-May-03 06:17N 46°27' W 084°33'24 4.6
2016-May-03 01:07N 46°12' W 084°07'284 5.7
2016-Apr-30 23:05N 42°60' W 079°13'4 7.3
2016-Apr-30 22:33N 43°03' W 079°13'4 3.8
2016-Apr-30 21:31N 43°07' W 079°12'1 0.5
2016-Apr-30 20:31N 43°08' W 079°12'0 0.3
2016-Apr-30 19:31N 43°08' W 079°12'1 1.1
2016-Apr-30 18:31N 43°09' W 079°12'2 2.2
2016-Apr-30 17:31N 43°12' W 079°12'1 1.5
2016-Apr-30 16:33N 43°13' W 079°13'1 0.6
2016-Apr-30 15:30N 43°14' W 079°13'2 2.4
2016-Apr-30 14:33N 43°16' W 079°13'8 7.9
2016-Apr-30 13:33N 43°22' W 079°07'1211.9
2016-Apr-30 12:33N 43°27' W 078°52'11312.2
2016-Apr-30 03:14N 44°06' W 076°24'115 7.6
2016-Apr-29 12:08N 45°14' W 074°13'8 8.7
2016-Apr-29 11:15N 45°13' W 074°02'6 8.3
2016-Apr-29 10:33N 45°17' W 073°56'2 1.6
2016-Apr-29 09:30N 45°19' W 073°55'0 0.3
2016-Apr-29 08:30N 45°19' W 073°55'3 2.9
2016-Apr-29 07:33N 45°21' W 073°52'9 9.0
2016-Apr-29 06:33N 45°25' W 073°41'5 4.5
2016-Apr-29 05:29N 45°24' W 073°34'8 2.8
2016-Apr-29 02:32N 45°32' W 073°32'8 7.9
2016-Apr-29 01:33N 45°40' W 073°28'9 8.8
2016-Apr-29 00:33N 45°47' W 073°21'9 9.2
2016-Apr-28 23:33N 45°54' W 073°13'9 9.0
2016-Apr-28 22:33N 46°03' W 073°09'1 1.3
2016-Apr-28 21:34N 46°03' W 073°07'0 0.0
2016-Apr-28 20:33N 46°03' W 073°07'0 0.0
2016-Apr-28 19:33N 46°03' W 073°07'0 0.0
2016-Apr-28 18:33N 46°03' W 073°07'0 0.0
2016-Apr-28 17:33N 46°03' W 073°07'0 0.0
2016-Apr-28 16:33N 46°03' W 073°07'0 0.0
2016-Apr-28 15:34N 46°03' W 073°07'0 0.0
2016-Apr-28 14:34N 46°03' W 073°07'0 0.0
2016-Apr-28 13:33N 46°03' W 073°07'0 0.0
2016-Apr-28 12:33N 46°03' W 073°07'0 0.0
2016-Apr-28 11:34N 46°03' W 073°07'0 0.0
2016-Apr-28 10:33N 46°03' W 073°07'0 0.0
2016-Apr-28 09:33N 46°03' W 073°07'0 0.0
2016-Apr-28 08:34N 46°03' W 073°07'0 0.0
2016-Apr-28 07:33N 46°03' W 073°07'0 0.0
2016-Apr-28 06:33N 46°03' W 073°07'0 0.0
2016-Apr-28 05:33N 46°03' W 073°07'0 0.0
2016-Apr-28 04:33N 46°03' W 073°07'0 0.0
2016-Apr-28 03:33N 46°03' W 073°07'0 0.0
2016-Apr-28 02:33N 46°03' W 073°07'0 0.0
2016-Apr-28 01:33N 46°03' W 073°07'0 0.0
2016-Apr-28 00:33N 46°03' W 073°07'0 0.0
2016-Apr-27 23:33N 46°03' W 073°07'0 0.0
2016-Apr-27 22:33N 46°03' W 073°07'0 0.0
2016-Apr-27 21:33N 46°03' W 073°07'0 0.0
2016-Apr-27 20:33N 46°03' W 073°07'0 0.0
2016-Apr-27 19:33N 46°03' W 073°07'0 0.0
2016-Apr-27 18:33N 46°03' W 073°07'0 0.0
2016-Apr-27 17:33N 46°03' W 073°07'0 0.0
2016-Apr-27 16:33N 46°03' W 073°07'0 0.0
2016-Apr-27 15:33N 46°03' W 073°07'0 0.0
2016-Apr-27 14:33N 46°03' W 073°07'0 0.0
2016-Apr-27 13:33N 46°03' W 073°07'0 0.0
2016-Apr-27 12:33N 46°03' W 073°07'0 0.0
2016-Apr-27 11:33N 46°03' W 073°07'0 0.0
2016-Apr-27 10:33N 46°03' W 073°07'0 0.0
2016-Apr-27 09:33N 46°03' W 073°07'0 0.0
2016-Apr-27 08:33N 46°03' W 073°07'0 0.0
2016-Apr-27 07:33N 46°03' W 073°07'0 0.0
2016-Apr-27 06:33N 46°03' W 073°07'0 0.0
2016-Apr-27 05:33N 46°03' W 073°07'0 0.0
2016-Apr-27 04:34N 46°03' W 073°07'0 0.0
2016-Apr-27 03:33N 46°03' W 073°07'0 0.0
2016-Apr-27 02:33N 46°03' W 073°07'0 0.0
2016-Apr-27 01:34N 46°03' W 073°07'0 0.0
2016-Apr-27 00:33N 46°03' W 073°07'0 0.0
2016-Apr-26 23:33N 46°03' W 073°07'0 0.0
2016-Apr-26 22:33N 46°03' W 073°07'0 0.0
2016-Apr-26 21:34N 46°03' W 073°07'0 0.0
2016-Apr-26 20:33N 46°03' W 073°07'0 0.0
2016-Apr-26 19:33N 46°03' W 073°07'0 0.0
2016-Apr-26 18:33N 46°03' W 073°07'0 0.0
2016-Apr-26 17:33N 46°03' W 073°07'0 0.0
2016-Apr-26 16:33N 46°03' W 073°07'0 0.0
2016-Apr-26 15:33N 46°03' W 073°07'0 0.0
2016-Apr-26 14:33N 46°03' W 073°07'0 0.0
2016-Apr-26 13:33N 46°03' W 073°07'0 0.0
2016-Apr-26 12:33N 46°03' W 073°07'0 0.0
2016-Apr-26 11:33N 46°03' W 073°07'0 0.0
2016-Apr-26 10:33N 46°03' W 073°07'0 0.0
2016-Apr-26 09:30N 46°03' W 073°07'0 0.0
2016-Apr-26 08:34N 46°03' W 073°07'0 0.0
2016-Apr-26 07:33N 46°03' W 073°07'0 0.0
2016-Apr-26 06:33N 46°03' W 073°07'0 0.0
2016-Apr-26 05:33N 46°03' W 073°07'0 0.0
2016-Apr-26 04:27N 46°03' W 073°07'0 0.0
2016-Apr-26 03:33N 46°03' W 073°07'0 0.3
2016-Apr-26 02:27N 46°03' W 073°07'8 9.3
2016-Apr-26 01:33N 45°56' W 073°13'1312.6
2016-Apr-26 00:33N 45°45' W 073°23'1111.4
2016-Apr-25 23:33N 45°35' W 073°30'8 3.5
2016-Apr-25 21:22N 45°27' W 073°30'4 2.5
2016-Apr-25 19:33N 45°24' W 073°35'5 5.1
2016-Apr-25 18:33N 45°25' W 073°42'10 9.9
2016-Apr-25 17:33N 45°20' W 073°54'2 1.5
2016-Apr-25 16:29N 45°18' W 073°56'1 0.6
2016-Apr-25 15:29N 45°18' W 073°56'5 4.8
2016-Apr-25 14:31N 45°14' W 073°60'9 9.3
2016-Apr-25 13:33N 45°14' W 074°13'  
Track history (hours):
 
Tides and Currents Weather Stations Pressure Air Temp Water Temp Dewpoint Dewpoint Depression Visibility Wind Speed Wind Dir Waves Ship Positions

Kaministiqua

Last reported at 2016-May-03 06:17 UTC. Time now 2016-May-03 16:19 UTC.
Position N 46°27' W 084°33'.

Length 223 m; draft 7 m.

Type: Cargo ship. MMSI: 316009457.

Date/timePositionNaut miles runAvg speedWind from/ knotsBaromVisibWave heightAir tempDewpointWater temp
2016-May-03 06:17N 46°27' W 084°33'24 4.6
2016-May-03 01:07N 46°12' W 084°07'284 5.7
2016-Apr-30 23:05N 42°60' W 079°13'4 7.3
2016-Apr-30 22:33N 43°03' W 079°13'4 3.8
2016-Apr-30 21:31N 43°07' W 079°12'1 0.5
2016-Apr-30 20:31N 43°08' W 079°12'0 0.3
2016-Apr-30 19:31N 43°08' W 079°12'1 1.1
2016-Apr-30 18:31N 43°09' W 079°12'2 2.2
2016-Apr-30 17:31N 43°12' W 079°12'1 1.5
2016-Apr-30 16:33N 43°13' W 079°13'1 0.6
2016-Apr-30 15:30N 43°14' W 079°13'2 2.4
2016-Apr-30 14:33N 43°16' W 079°13'8 7.9
2016-Apr-30 13:33N 43°22' W 079°07'1211.9
2016-Apr-30 12:33N 43°27' W 078°52'11312.2
2016-Apr-30 03:14N 44°06' W 076°24'115 7.6
2016-Apr-29 12:08N 45°14' W 074°13'8 8.7
2016-Apr-29 11:15N 45°13' W 074°02'6 8.3
2016-Apr-29 10:33N 45°17' W 073°56'2 1.6
2016-Apr-29 09:30N 45°19' W 073°55'0 0.3
2016-Apr-29 08:30N 45°19' W 073°55'3 2.9
2016-Apr-29 07:33N 45°21' W 073°52'9 9.0
2016-Apr-29 06:33N 45°25' W 073°41'5 4.5
2016-Apr-29 05:29N 45°24' W 073°34'8 2.8
2016-Apr-29 02:32N 45°32' W 073°32'8 7.9
2016-Apr-29 01:33N 45°40' W 073°28'9 8.8
2016-Apr-29 00:33N 45°47' W 073°21'9 9.2
2016-Apr-28 23:33N 45°54' W 073°13'9 9.0
2016-Apr-28 22:33N 46°03' W 073°09'1 1.3
2016-Apr-28 21:34N 46°03' W 073°07'0 0.0
2016-Apr-28 20:33N 46°03' W 073°07'0 0.0
2016-Apr-28 19:33N 46°03' W 073°07'0 0.0
2016-Apr-28 18:33N 46°03' W 073°07'0 0.0
2016-Apr-28 17:33N 46°03' W 073°07'0 0.0
2016-Apr-28 16:33N 46°03' W 073°07'0 0.0
2016-Apr-28 15:34N 46°03' W 073°07'0 0.0
2016-Apr-28 14:34N 46°03' W 073°07'0 0.0
2016-Apr-28 13:33N 46°03' W 073°07'0 0.0
2016-Apr-28 12:33N 46°03' W 073°07'0 0.0
2016-Apr-28 11:34N 46°03' W 073°07'0 0.0
2016-Apr-28 10:33N 46°03' W 073°07'0 0.0
2016-Apr-28 09:33N 46°03' W 073°07'0 0.0
2016-Apr-28 08:34N 46°03' W 073°07'0 0.0
2016-Apr-28 07:33N 46°03' W 073°07'0 0.0
2016-Apr-28 06:33N 46°03' W 073°07'0 0.0
2016-Apr-28 05:33N 46°03' W 073°07'0 0.0
2016-Apr-28 04:33N 46°03' W 073°07'0 0.0
2016-Apr-28 03:33N 46°03' W 073°07'0 0.0
2016-Apr-28 02:33N 46°03' W 073°07'0 0.0
2016-Apr-28 01:33N 46°03' W 073°07'0 0.0
2016-Apr-28 00:33N 46°03' W 073°07'0 0.0
2016-Apr-27 23:33N 46°03' W 073°07'0 0.0
2016-Apr-27 22:33N 46°03' W 073°07'0 0.0
2016-Apr-27 21:33N 46°03' W 073°07'0 0.0
2016-Apr-27 20:33N 46°03' W 073°07'0 0.0
2016-Apr-27 19:33N 46°03' W 073°07'0 0.0
2016-Apr-27 18:33N 46°03' W 073°07'0 0.0
2016-Apr-27 17:33N 46°03' W 073°07'0 0.0
2016-Apr-27 16:33N 46°03' W 073°07'0 0.0
2016-Apr-27 15:33N 46°03' W 073°07'0 0.0
2016-Apr-27 14:33N 46°03' W 073°07'0 0.0
2016-Apr-27 13:33N 46°03' W 073°07'0 0.0
2016-Apr-27 12:33N 46°03' W 073°07'0 0.0
2016-Apr-27 11:33N 46°03' W 073°07'0 0.0
2016-Apr-27 10:33N 46°03' W 073°07'0 0.0
2016-Apr-27 09:33N 46°03' W 073°07'0 0.0
2016-Apr-27 08:33N 46°03' W 073°07'0 0.0
2016-Apr-27 07:33N 46°03' W 073°07'0 0.0
2016-Apr-27 06:33N 46°03' W 073°07'0 0.0
2016-Apr-27 05:33N 46°03' W 073°07'0 0.0
2016-Apr-27 04:34N 46°03' W 073°07'0 0.0
2016-Apr-27 03:33N 46°03' W 073°07'0 0.0
2016-Apr-27 02:33N 46°03' W 073°07'0 0.0
2016-Apr-27 01:34N 46°03' W 073°07'0 0.0
2016-Apr-27 00:33N 46°03' W 073°07'0 0.0
2016-Apr-26 23:33N 46°03' W 073°07'0 0.0
2016-Apr-26 22:33N 46°03' W 073°07'0 0.0
2016-Apr-26 21:34N 46°03' W 073°07'0 0.0
2016-Apr-26 20:33N 46°03' W 073°07'0 0.0
2016-Apr-26 19:33N 46°03' W 073°07'0 0.0
2016-Apr-26 18:33N 46°03' W 073°07'0 0.0
2016-Apr-26 17:33N 46°03' W 073°07'0 0.0
2016-Apr-26 16:33N 46°03' W 073°07'0 0.0
2016-Apr-26 15:33N 46°03' W 073°07'0 0.0
2016-Apr-26 14:33N 46°03' W 073°07'0 0.0
2016-Apr-26 13:33N 46°03' W 073°07'0 0.0
2016-Apr-26 12:33N 46°03' W 073°07'0 0.0
2016-Apr-26 11:33N 46°03' W 073°07'0 0.0
2016-Apr-26 10:33N 46°03' W 073°07'0 0.0
2016-Apr-26 09:30N 46°03' W 073°07'0 0.0
2016-Apr-26 08:34N 46°03' W 073°07'0 0.0
2016-Apr-26 07:33N 46°03' W 073°07'0 0.0
2016-Apr-26 06:33N 46°03' W 073°07'0 0.0
2016-Apr-26 05:33N 46°03' W 073°07'0 0.0
2016-Apr-26 04:27N 46°03' W 073°07'0 0.0
2016-Apr-26 03:33N 46°03' W 073°07'0 0.3
2016-Apr-26 02:27N 46°03' W 073°07'8 9.3
2016-Apr-26 01:33N 45°56' W 073°13'1312.6
2016-Apr-26 00:33N 45°45' W 073°23'1111.4
2016-Apr-25 23:33N 45°35' W 073°30'8 3.5
2016-Apr-25 21:22N 45°27' W 073°30'4 2.5
2016-Apr-25 19:33N 45°24' W 073°35'5 5.1
2016-Apr-25 18:33N 45°25' W 073°42'10 9.9
2016-Apr-25 17:33N 45°20' W 073°54'2 1.5
2016-Apr-25 16:29N 45°18' W 073°56'1 0.6
2016-Apr-25 15:29N 45°18' W 073°56'5 4.8
2016-Apr-25 14:31N 45°14' W 073°60'9 9.3
2016-Apr-25 13:33N 45°14' W 074°13'  

Dump ship's entire track history